Time;durP1;ratioP1;P1;durP2;ratioP2;P2;SDS_P1;SDS_P2;PMS_P1;PMS_P2;Temp;Humidity;BMP_temperature;BMP_pressure;BME280_temperature;BME280_humidity;BME280_pressure;Samples;Min_cycle;Max_cycle;Signal;HPM_P1;HPM_P2
2022/09/17 00:02:05;;;;;;;1.83;0.70;;;13.30;99.90;;;;;;7333924;19;22824;-46
2022/09/17 00:04:35;;;;;;;2.13;0.83;;;13.30;99.90;;;;;;7337209;19;20733;-46
2022/09/17 00:07:05;;;;;;;0.67;0.50;;;13.30;99.90;;;;;;7327776;19;21059;-48
2022/09/17 00:09:38;;;;;;;1.73;1.00;;;13.40;99.90;;;;;;7313644;19;21067;-46
2022/09/17 00:12:09;;;;;;;0.90;0.70;;;13.50;99.90;;;;;;7338070;19;20368;-46
2022/09/17 00:14:39;;;;;;;1.20;0.87;;;13.40;99.90;;;;;;7336663;19;21518;-46
2022/09/17 00:17:08;;;;;;;1.17;0.60;;;13.30;99.90;;;;;;7334020;19;20373;-46
2022/09/17 00:19:38;;;;;;;0.87;0.83;;;13.30;99.90;;;;;;7337498;19;20926;-46
2022/09/17 00:22:10;;;;;;;1.13;0.70;;;13.30;99.90;;;;;;7339224;19;20741;-46
2022/09/17 00:24:43;;;;;;;1.17;0.97;;;13.30;99.90;;;;;;7336422;19;20375;-46
2022/09/17 00:27:12;;;;;;;3.73;1.27;;;13.30;99.90;;;;;;7356965;19;20376;-46
2022/09/17 00:29:42;;;;;;;2.30;1.00;;;13.40;99.90;;;;;;7355402;19;20380;-46
2022/09/17 00:32:14;;;;;;;1.17;0.70;;;13.40;99.90;;;;;;7356714;19;20412;-46
2022/09/17 00:34:45;;;;;;;1.57;0.70;;;13.40;99.90;;;;;;7366750;19;20416;-46
2022/09/17 00:37:15;;;;;;;2.77;0.77;;;13.30;99.90;;;;;;7361618;19;20372;-46
2022/09/17 00:39:47;;;;;;;1.00;0.70;;;13.30;99.90;;;;;;7362693;19;20903;-46
2022/09/17 00:42:18;;;;;;;1.20;0.70;;;13.30;99.90;;;;;;7391539;19;20857;-46
2022/09/17 00:44:51;;;;;;;1.67;0.80;;;13.30;99.90;;;;;;7360324;19;21097;-46
2022/09/17 00:47:32;;;;;;;0.70;0.60;;;13.20;99.90;;;;;;7358045;19;20380;-46
2022/09/17 00:50:04;;;;;;;0.80;0.80;;;13.30;99.90;;;;;;7363447;19;20376;-46
2022/09/17 00:52:36;;;;;;;2.60;0.70;;;13.30;99.90;;;;;;7361695;19;20408;-46
2022/09/17 00:55:15;;;;;;;2.37;0.90;;;13.30;99.90;;;;;;7345101;19;20451;-46
2022/09/17 00:57:45;;;;;;;0.67;0.67;;;13.40;99.90;;;;;;7375093;19;20394;-46
2022/09/17 01:00:17;;;;;;;1.93;0.67;;;13.40;99.90;;;;;;7360742;19;20416;-46
2022/09/17 01:02:46;;;;;;;1.10;0.67;;;13.30;99.90;;;;;;7357998;19;20364;-46
2022/09/17 01:05:17;;;;;;;1.43;0.80;;;13.30;99.90;;;;;;7358341;19;20380;-46
2022/09/17 01:08:00;;;;;;;0.90;0.80;;;13.30;99.90;;;;;;7360473;19;20368;-46
2022/09/17 01:11:09;;;;;;;1.03;0.80;;;13.10;99.90;;;;;;7362725;19;21061;-46
2022/09/17 01:13:50;;;;;;;2.20;0.97;;;13.00;99.90;;;;;;7359032;19;20892;-46
2022/09/17 01:16:26;;;;;;;3.33;1.17;;;13.00;99.90;;;;;;7356478;19;20371;-46
2022/09/17 01:19:05;;;;;;;3.43;1.20;;;13.10;99.90;;;;;;7364960;19;20456;-46
2022/09/17 01:21:54;;;;;;;1.43;0.87;;;13.10;99.90;;;;;;7368236;19;20906;-46
2022/09/17 01:24:47;;;;;;;2.30;1.10;;;13.10;99.90;;;;;;7368347;19;20463;-46
2022/09/17 01:27:58;;;;;;;1.93;0.90;;;13.00;99.90;;;;;;7372724;19;20379;-46
2022/09/17 01:30:57;;;;;;;1.57;0.80;;;12.90;99.90;;;;;;7350841;19;22119;-45
2022/09/17 01:33:32;;;;;;;1.23;1.03;;;12.90;99.90;;;;;;7357765;19;20411;-45
2022/09/17 01:36:11;;;;;;;1.50;0.97;;;12.90;99.90;;;;;;7364665;19;20379;-45
2022/09/17 01:38:48;;;;;;;2.20;1.13;;;12.90;99.90;;;;;;7368503;19;20583;-45
2022/09/17 01:41:25;;;;;;;1.10;0.70;;;12.70;99.90;;;;;;7369971;19;20368;-45
2022/09/17 01:44:00;;;;;;;2.23;1.27;;;12.70;99.90;;;;;;7369246;19;20372;-45
2022/09/17 01:46:37;;;;;;;2.20;1.03;;;12.70;99.90;;;;;;7365362;19;27516;-45
2022/09/17 01:49:08;;;;;;;1.30;0.80;;;12.70;99.90;;;;;;7362762;19;20388;-45
2022/09/17 01:51:40;;;;;;;2.73;1.10;;;12.80;99.90;;;;;;7369598;19;20376;-45
2022/09/17 01:54:15;;;;;;;4.03;1.13;;;12.80;99.90;;;;;;7369651;19;21036;-45
2022/09/17 01:56:50;;;;;;;1.53;0.93;;;12.80;99.90;;;;;;7379925;19;20736;-45
2022/09/17 01:59:26;;;;;;;2.40;1.23;;;12.90;99.90;;;;;;7363475;19;20410;-46
2022/09/17 02:02:07;;;;;;;2.93;1.30;;;12.90;99.90;;;;;;7368819;19;20440;-45
2022/09/17 02:04:45;;;;;;;3.10;1.27;;;12.90;99.90;;;;;;7368587;19;20379;-45
2022/09/17 02:07:20;;;;;;;1.87;0.80;;;12.90;99.90;;;;;;7376164;19;20383;-45
2022/09/17 02:09:54;;;;;;;1.43;1.30;;;12.90;99.90;;;;;;7371466;19;20400;-45
2022/09/17 02:12:30;;;;;;;2.20;0.90;;;12.90;99.90;;;;;;7364864;19;20375;-45
2022/09/17 02:15:05;;;;;;;2.60;1.00;;;13.00;99.90;;;;;;7367034;19;20401;-45
2022/09/17 02:17:41;;;;;;;1.73;1.10;;;12.80;99.90;;;;;;7373891;19;20770;-45
2022/09/17 02:20:12;;;;;;;2.17;1.40;;;12.80;99.90;;;;;;7371059;19;20443;-45
2022/09/17 02:22:45;;;;;;;1.90;1.10;;;12.90;99.90;;;;;;7362991;19;20381;-45
2022/09/17 02:25:22;;;;;;;3.03;1.37;;;12.80;99.90;;;;;;7368929;19;20384;-46
2022/09/17 02:27:59;;;;;;;1.80;1.00;;;12.80;99.90;;;;;;7383326;19;20967;-45
2022/09/17 02:30:28;;;;;;;2.07;1.10;;;12.90;99.90;;;;;;7366954;19;20405;-45
2022/09/17 02:33:03;;;;;;;2.07;1.13;;;12.90;99.90;;;;;;7369889;19;21401;-45
2022/09/17 02:35:33;;;;;;;3.50;1.10;;;12.90;99.90;;;;;;7361073;19;20594;-45
2022/09/17 02:38:03;;;;;;;3.30;1.00;;;12.90;99.90;;;;;;7379252;19;20360;-45
2022/09/17 02:40:37;;;;;;;4.33;1.27;;;13.00;99.90;;;;;;7373061;19;20387;-45
2022/09/17 02:43:15;;;;;;;1.50;1.37;;;13.00;99.90;;;;;;7382112;19;20388;-45
2022/09/17 02:45:55;;;;;;;2.13;1.30;;;13.00;99.90;;;;;;7378881;19;20387;-45
2022/09/17 02:48:48;;;;;;;2.50;0.90;;;13.00;99.90;;;;;;7380019;19;21375;-45
2022/09/17 02:51:29;;;;;;;1.93;1.00;;;12.90;99.90;;;;;;7376631;19;20384;-46
2022/09/17 02:54:05;;;;;;;1.10;0.90;;;12.80;99.90;;;;;;7377609;19;20372;-46
2022/09/17 02:56:45;;;;;;;2.20;1.20;;;12.90;99.90;;;;;;7375453;19;20379;-46
2022/09/17 02:59:21;;;;;;;6.70;1.10;;;12.90;99.90;;;;;;7378319;19;20398;-45
2022/09/17 03:01:57;;;;;;;3.00;1.00;;;12.80;99.90;;;;;;7375347;19;20427;-45
2022/09/17 03:04:31;;;;;;;2.77;1.13;;;12.70;99.90;;;;;;7379217;19;20382;-46
2022/09/17 03:07:01;;;;;;;1.23;1.10;;;12.60;99.90;;;;;;7381639;19;20387;-46
2022/09/17 03:09:31;;;;;;;2.77;1.00;;;12.60;99.90;;;;;;7377864;19;20424;-45
2022/09/17 03:12:01;;;;;;;1.93;1.13;;;12.60;99.90;;;;;;7380557;19;20451;-45
2022/09/17 03:14:30;;;;;;;1.70;0.90;;;12.50;99.90;;;;;;7383691;19;20398;-46
2022/09/17 03:16:59;;;;;;;2.20;1.20;;;12.50;99.90;;;;;;7378964;19;20372;-45
2022/09/17 03:19:32;;;;;;;4.03;1.40;;;12.50;99.90;;;;;;7380522;19;20381;-46
2022/09/17 03:22:01;;;;;;;1.70;1.40;;;12.40;99.90;;;;;;7380909;19;20387;-46
2022/09/17 03:24:31;;;;;;;3.63;1.10;;;12.40;99.90;;;;;;7379771;19;20465;-46
2022/09/17 03:27:02;;;;;;;2.20;1.00;;;12.30;99.90;;;;;;7381879;19;20391;-46
2022/09/17 03:29:32;;;;;;;7.50;1.40;;;12.40;99.90;;;;;;7374552;19;20400;-46
2022/09/17 03:32:01;;;;;;;1.23;0.90;;;12.30;99.90;;;;;;7378749;19;20388;-46
2022/09/17 03:34:34;;;;;;;2.17;1.43;;;12.30;99.90;;;;;;7382940;19;20379;-46
2022/09/17 03:37:03;;;;;;;2.00;0.90;;;12.30;99.90;;;;;;7380503;19;20744;-46
2022/09/17 03:39:33;;;;;;;4.87;1.20;;;12.40;99.90;;;;;;7379114;19;21013;-46
2022/09/17 03:42:02;;;;;;;1.37;1.27;;;12.40;99.90;;;;;;7382478;19;20372;-46
2022/09/17 03:44:32;;;;;;;1.77;1.10;;;12.40;99.90;;;;;;7380611;19;20446;-45
2022/09/17 03:47:01;;;;;;;2.30;1.00;;;12.50;99.90;;;;;;7378169;19;24067;-45
2022/09/17 03:49:33;;;;;;;2.00;1.00;;;12.50;99.90;;;;;;7382862;19;20360;-45
2022/09/17 03:52:03;;;;;;;3.80;1.67;;;12.60;99.90;;;;;;7378524;19;20375;-45
2022/09/17 03:54:35;;;;;;;1.57;1.00;;;12.60;99.90;;;;;;7381586;19;20360;-45
2022/09/17 03:57:04;;;;;;;3.50;1.10;;;12.50;99.90;;;;;;7377160;19;20703;-45
2022/09/17 03:59:34;;;;;;;1.53;0.90;;;12.50;99.90;;;;;;7382858;19;20380;-45
2022/09/17 04:02:03;;;;;;;3.30;1.53;;;12.40;99.90;;;;;;7358257;19;20457;-46
2022/09/17 04:04:38;;;;;;;3.70;1.13;;;12.30;99.90;;;;;;7378288;19;20732;-46
2022/09/17 04:07:09;;;;;;;2.30;1.30;;;12.40;99.90;;;;;;7378452;19;20379;-46
2022/09/17 04:09:39;;;;;;;4.93;1.47;;;12.30;99.90;;;;;;7377990;19;20937;-45
2022/09/17 04:12:14;;;;;;;5.87;1.60;;;12.40;99.90;;;;;;7379260;19;20415;-45
2022/09/17 04:14:43;;;;;;;3.33;0.80;;;12.30;99.90;;;;;;7379306;19;20413;-46
2022/09/17 04:17:16;;;;;;;6.90;1.40;;;12.30;99.90;;;;;;7377568;19;20957;-46
2022/09/17 04:19:49;;;;;;;1.73;1.00;;;12.40;99.90;;;;;;7381934;19;20380;-45
2022/09/17 04:22:18;;;;;;;1.37;0.87;;;12.40;99.90;;;;;;7379847;19;20400;-46
2022/09/17 04:24:47;;;;;;;4.17;0.93;;;12.30;99.90;;;;;;7377604;19;20483;-46
2022/09/17 04:27:17;;;;;;;3.60;0.90;;;12.20;99.90;;;;;;7381107;19;20408;-46
2022/09/17 04:29:47;;;;;;;2.13;1.00;;;12.30;99.90;;;;;;7381631;19;20416;-46
2022/09/17 04:32:16;;;;;;;3.63;1.10;;;12.20;99.90;;;;;;7372981;19;20439;-46
2022/09/17 04:34:48;;;;;;;7.53;1.20;;;12.20;99.90;;;;;;7376222;19;21048;-46
2022/09/17 04:37:18;;;;;;;1.97;0.90;;;12.10;99.90;;;;;;7378735;19;20728;-46
2022/09/17 04:39:48;;;;;;;3.00;0.90;;;12.10;99.90;;;;;;7382410;19;20384;-46
2022/09/17 04:42:17;;;;;;;3.47;1.07;;;12.10;99.90;;;;;;7381552;19;20386;-46
2022/09/17 04:44:47;;;;;;;1.70;1.13;;;12.10;99.90;;;;;;7376636;19;20385;-46
2022/09/17 04:47:19;;;;;;;2.40;1.40;;;12.20;99.90;;;;;;7373291;19;20380;-46
2022/09/17 04:49:51;;;;;;;4.00;1.40;;;12.20;99.90;;;;;;7356426;19;20443;-46
2022/09/17 04:52:20;;;;;;;4.40;1.30;;;12.20;99.90;;;;;;7360088;19;20380;-45
2022/09/17 04:54:49;;;;;;;5.50;1.00;;;12.10;99.90;;;;;;7362150;19;20395;-46
2022/09/17 04:57:19;;;;;;;4.43;1.37;;;12.10;99.90;;;;;;7363732;19;20382;-46
2022/09/17 04:59:48;;;;;;;4.33;1.23;;;12.10;99.90;;;;;;7362626;19;21047;-46
2022/09/17 05:02:20;;;;;;;2.37;1.10;;;12.20;99.90;;;;;;7358327;19;20432;-46
2022/09/17 05:04:52;;;;;;;3.60;1.33;;;12.20;99.90;;;;;;7382005;19;20379;-45
2022/09/17 05:07:22;;;;;;;2.93;1.10;;;12.30;99.90;;;;;;7375667;19;20368;-47
2022/09/17 05:09:52;;;;;;;2.97;1.00;;;12.30;99.30;;;;;;7380502;19;20382;-47
2022/09/17 05:12:21;;;;;;;3.77;1.57;;;12.30;99.90;;;;;;7383776;19;20371;-45
2022/09/17 05:14:53;;;;;;;5.17;1.13;;;12.20;99.30;;;;;;7387511;19;20717;-46
2022/09/17 05:17:23;;;;;;;5.13;1.40;;;12.20;99.90;;;;;;7383187;19;21052;-46
2022/09/17 05:19:55;;;;;;;2.37;1.03;;;12.40;99.60;;;;;;7388805;19;20888;-46
2022/09/17 05:22:24;;;;;;;2.20;0.83;;;12.30;99.70;;;;;;7383399;19;20937;-46
2022/09/17 05:24:54;;;;;;;3.77;1.50;;;12.30;99.30;;;;;;7382304;19;20845;-47
2022/09/17 05:27:26;;;;;;;6.37;1.40;;;12.30;99.00;;;;;;7384507;19;20399;-46
2022/09/17 05:29:55;;;;;;;6.20;1.30;;;12.30;99.60;;;;;;7378603;19;20435;-45
2022/09/17 05:32:24;;;;;;;3.00;1.47;;;12.40;99.90;;;;;;7374151;19;20384;-47
2022/09/17 05:34:57;;;;;;;4.60;0.90;;;12.30;99.90;;;;;;7380603;19;20410;-44
2022/09/17 05:37:28;;;;;;;2.97;1.30;;;12.40;99.90;;;;;;7377221;19;20780;-44
2022/09/17 05:39:58;;;;;;;2.40;1.53;;;12.50;99.90;;;;;;7383771;19;20417;-45
2022/09/17 05:42:30;;;;;;;5.20;1.60;;;12.50;99.80;;;;;;7379058;19;20372;-44
2022/09/17 05:44:59;;;;;;;2.13;1.40;;;12.40;98.70;;;;;;7384327;19;20380;-44
2022/09/17 05:47:29;;;;;;;5.53;1.53;;;12.30;99.80;;;;;;7377411;19;20847;-46
2022/09/17 05:50:01;;;;;;;4.80;1.30;;;12.30;99.90;;;;;;7389184;19;20395;-47
2022/09/17 05:52:31;;;;;;;2.63;1.07;;;12.20;99.90;;;;;;7384952;19;20897;-44
2022/09/17 05:55:00;;;;;;;4.40;1.27;;;12.30;99.90;;;;;;7385236;19;20372;-44
2022/09/17 05:57:31;;;;;;;4.00;1.27;;;12.30;99.90;;;;;;7376408;19;20384;-44
2022/09/17 06:00:00;;;;;;;3.03;1.53;;;12.20;99.80;;;;;;7384010;19;21012;-44
2022/09/17 06:02:30;;;;;;;4.97;1.57;;;12.20;99.90;;;;;;7377423;19;20467;-46
2022/09/17 06:05:02;;;;;;;2.03;1.43;;;12.20;99.90;;;;;;7384991;19;20421;-45
2022/09/17 06:07:32;;;;;;;3.33;1.33;;;12.30;99.90;;;;;;7384156;19;21650;-46
2022/09/17 06:10:01;;;;;;;3.13;1.10;;;12.30;99.90;;;;;;7379704;19;20425;-46
2022/09/17 06:12:34;;;;;;;3.70;1.23;;;12.40;99.70;;;;;;7382295;19;20412;-47
2022/09/17 06:15:03;;;;;;;9.30;1.77;;;12.50;99.70;;;;;;7384497;19;20436;-47
2022/09/17 06:17:35;;;;;;;10.03;1.70;;;12.60;98.40;;;;;;7381649;19;20376;-44
2022/09/17 06:20:09;;;;;;;2.07;1.17;;;12.60;98.60;;;;;;7382427;19;20444;-45
2022/09/17 06:22:38;;;;;;;7.10;1.70;;;12.70;98.30;;;;;;7385657;19;20395;-45
2022/09/17 06:25:09;;;;;;;8.13;1.97;;;12.70;97.70;;;;;;7382957;19;20380;-45
2022/09/17 06:27:38;;;;;;;3.60;1.57;;;12.80;97.30;;;;;;7379982;19;20387;-45
2022/09/17 06:30:09;;;;;;;3.13;1.40;;;12.80;96.20;;;;;;7383349;19;20821;-46
2022/09/17 06:32:38;;;;;;;5.80;1.70;;;12.80;96.40;;;;;;7336286;19;20405;-44
2022/09/17 06:35:11;;;;;;;6.57;1.77;;;12.90;96.80;;;;;;7342475;19;20991;-45
2022/09/17 06:37:43;;;;;;;8.57;1.80;;;12.90;95.50;;;;;;7342041;19;20828;-44
2022/09/17 06:40:16;;;;;;;3.17;1.20;;;12.90;95.70;;;;;;7341660;19;20377;-46
2022/09/17 06:42:48;;;;;;;4.90;1.80;;;12.90;94.80;;;;;;7371571;19;20360;-44
2022/09/17 06:45:17;;;;;;;8.77;1.50;;;12.90;94.20;;;;;;7382994;19;20423;-45
2022/09/17 06:47:47;;;;;;;3.30;1.70;;;12.90;93.70;;;;;;7381506;19;20384;-44
2022/09/17 06:50:19;;;;;;;6.60;1.27;;;13.00;93.70;;;;;;7382903;19;20364;-46
2022/09/17 06:52:52;;;;;;;3.97;1.67;;;13.00;93.20;;;;;;7379885;19;20364;-47
2022/09/17 06:55:23;;;;;;;2.60;1.60;;;13.20;93.30;;;;;;7373289;19;20958;-45
2022/09/17 06:57:52;;;;;;;5.00;1.70;;;13.30;92.30;;;;;;7383134;19;20376;-45
2022/09/17 07:00:25;;;;;;;4.77;1.73;;;13.40;91.80;;;;;;7381989;19;20376;-45
2022/09/17 07:02:58;;;;;;;6.13;1.63;;;13.50;91.40;;;;;;7373878;19;20369;-46
2022/09/17 07:05:34;;;;;;;2.87;1.40;;;13.30;90.60;;;;;;7386122;19;20392;-45
2022/09/17 07:08:04;;;;;;;3.67;1.70;;;13.30;90.90;;;;;;7384609;19;20926;-45
2022/09/17 07:10:36;;;;;;;3.37;1.33;;;13.20;90.80;;;;;;7378657;19;20439;-45
2022/09/17 07:13:05;;;;;;;7.07;1.70;;;13.00;92.10;;;;;;7383864;19;20376;-45
2022/09/17 07:15:35;;;;;;;3.80;1.63;;;13.00;92.80;;;;;;7384046;19;20380;-45
2022/09/17 07:18:10;;;;;;;1.97;1.50;;;12.90;95.20;;;;;;7376123;19;20970;-45
2022/09/17 07:20:42;;;;;;;2.60;1.70;;;12.80;97.80;;;;;;7381180;19;20410;-45
2022/09/17 07:23:11;;;;;;;7.23;1.80;;;12.90;98.30;;;;;;7378539;19;20416;-46
2022/09/17 07:25:41;;;;;;;3.97;2.10;;;12.80;99.80;;;;;;7383119;19;20380;-46
2022/09/17 07:28:10;;;;;;;2.47;1.73;;;12.80;99.90;;;;;;7380485;19;20379;-45
2022/09/17 07:30:39;;;;;;;2.83;1.73;;;12.70;99.90;;;;;;7379538;19;20904;-45
2022/09/17 07:33:09;;;;;;;5.57;1.70;;;12.50;99.90;;;;;;7376010;19;20380;-46
2022/09/17 07:35:38;;;;;;;7.77;1.80;;;12.40;99.90;;;;;;7379456;19;20372;-45
2022/09/17 07:38:11;;;;;;;6.13;1.90;;;12.40;99.90;;;;;;7382442;19;20387;-45
2022/09/17 07:40:40;;;;;;;5.67;2.07;;;12.50;99.90;;;;;;7382483;19;20372;-45
2022/09/17 07:43:09;;;;;;;3.40;1.60;;;12.50;99.90;;;;;;7377062;19;20416;-45
2022/09/17 07:45:39;;;;;;;5.67;2.00;;;12.50;99.90;;;;;;7374436;19;20372;-45
2022/09/17 07:48:08;;;;;;;3.50;2.00;;;12.40;99.90;;;;;;7370126;19;20930;-45
2022/09/17 07:50:40;;;;;;;4.67;1.60;;;12.40;99.90;;;;;;7381600;19;20376;-45
2022/09/17 07:53:13;;;;;;;2.17;1.70;;;12.50;99.90;;;;;;7378879;19;20408;-45
2022/09/17 07:55:42;;;;;;;3.97;1.97;;;12.60;99.90;;;;;;7378149;19;20388;-44
2022/09/17 07:58:12;;;;;;;4.73;2.33;;;12.50;99.90;;;;;;7381009;19;20380;-45
2022/09/17 08:00:42;;;;;;;4.57;1.40;;;12.50;99.90;;;;;;7373806;19;20993;-45
2022/09/17 08:03:11;;;;;;;2.50;1.47;;;12.40;99.90;;;;;;7348901;19;20930;-45
2022/09/17 08:05:40;;;;;;;2.00;1.30;;;12.40;99.90;;;;;;7349311;19;21554;-45
2022/09/17 08:08:13;;;;;;;2.83;1.33;;;12.50;99.90;;;;;;7345292;19;20435;-45
2022/09/17 08:10:42;;;;;;;2.90;1.20;;;12.70;99.90;;;;;;7343367;19;21287;-45
2022/09/17 08:13:14;;;;;;;2.60;1.50;;;12.70;99.90;;;;;;7346228;19;20411;-45
2022/09/17 08:15:43;;;;;;;3.30;1.40;;;12.70;99.90;;;;;;7329939;19;20401;-45
2022/09/17 08:18:13;;;;;;;3.60;1.70;;;12.70;99.90;;;;;;7349115;19;20462;-46
2022/09/17 08:20:44;;;;;;;4.80;2.20;;;12.70;99.90;;;;;;7347910;19;20387;-44
2022/09/17 08:23:16;;;;;;;2.77;1.60;;;12.80;99.90;;;;;;7341932;19;20799;-47
2022/09/17 08:25:46;;;;;;;3.30;1.83;;;13.00;99.90;;;;;;7370521;19;20767;-46
2022/09/17 08:28:15;;;;;;;2.97;1.97;;;13.00;99.90;;;;;;7377378;19;20925;-46
2022/09/17 08:30:45;;;;;;;5.53;2.40;;;13.20;99.90;;;;;;7376166;19;20368;-46
2022/09/17 08:33:14;;;;;;;5.20;2.00;;;13.30;99.90;;;;;;7371628;19;20383;-45
2022/09/17 08:35:44;;;;;;;7.17;3.00;;;13.30;99.90;;;;;;7364237;19;20366;-45
2022/09/17 08:38:16;;;;;;;9.77;1.83;;;13.40;99.90;;;;;;7350875;19;20468;-45
2022/09/17 08:40:57;;;;;;;6.83;1.60;;;13.30;99.90;;;;;;7328934;19;20801;-46
2022/09/17 08:43:28;;;;;;;3.07;1.80;;;13.10;99.90;;;;;;7320405;19;20950;-45
2022/09/17 08:46:00;;;;;;;4.03;2.33;;;13.10;99.90;;;;;;7323339;19;20470;-45
2022/09/17 08:48:41;;;;;;;5.83;1.80;;;13.20;99.90;;;;;;7297558;19;20423;-45
2022/09/17 08:51:25;;;;;;;3.23;2.03;;;13.40;99.90;;;;;;7336350;19;20379;-45
2022/09/17 08:54:07;;;;;;;4.00;1.90;;;13.50;99.90;;;;;;7336429;19;20368;-46
2022/09/17 08:56:38;;;;;;;5.93;1.93;;;13.70;99.90;;;;;;7323235;19;20375;-47
2022/09/17 08:59:18;;;;;;;5.27;2.30;;;13.80;99.70;;;;;;7343993;19;20420;-46
2022/09/17 09:01:58;;;;;;;2.27;1.30;;;14.10;99.20;;;;;;7335754;19;20771;-46
2022/09/17 09:04:43;;;;;;;6.97;1.80;;;14.50;97.00;;;;;;7345946;19;21443;-46
2022/09/17 09:07:18;;;;;;;2.97;2.00;;;14.70;95.30;;;;;;7335470;19;20875;-46
2022/09/17 09:09:55;;;;;;;3.70;2.50;;;14.90;91.50;;;;;;7333129;19;20475;-46
2022/09/17 09:12:30;;;;;;;4.17;1.70;;;14.70;92.10;;;;;;7335797;19;20376;-46
2022/09/17 09:15:02;;;;;;;3.90;1.77;;;14.60;94.30;;;;;;7334476;19;20364;-45
2022/09/17 09:17:38;;;;;;;5.60;2.13;;;14.80;93.30;;;;;;7337767;19;20948;-46
2022/09/17 09:20:13;;;;;;;5.70;2.10;;;14.80;91.10;;;;;;7342475;19;20716;-45
2022/09/17 09:22:50;;;;;;;10.37;1.90;;;14.70;91.50;;;;;;7343026;19;20397;-45
2022/09/17 09:25:27;;;;;;;10.13;2.67;;;14.60;91.40;;;;;;7358071;19;20917;-45
2022/09/17 09:28:10;;;;;;;5.57;2.40;;;14.60;92.50;;;;;;7380549;19;20371;-46
2022/09/17 09:30:51;;;;;;;4.87;2.20;;;14.80;92.10;;;;;;7372243;19;20368;-45
2022/09/17 09:33:28;;;;;;;6.47;2.40;;;14.80;90.90;;;;;;7359245;19;20419;-46
2022/09/17 09:35:58;;;;;;;6.00;3.07;;;14.80;89.20;;;;;;7353606;19;20387;-46
2022/09/17 09:38:34;;;;;;;6.63;2.30;;;14.90;87.70;;;;;;7358543;19;20380;-46
2022/09/17 09:41:13;;;;;;;5.30;2.10;;;15.00;85.40;;;;;;7375595;19;20476;-46
2022/09/17 09:43:46;;;;;;;10.30;3.17;;;14.70;85.70;;;;;;7384851;19;20380;-45
2022/09/17 09:46:42;;;;;;;5.60;2.00;;;14.70;85.70;;;;;;7384670;19;20372;-46
2022/09/17 09:49:24;;;;;;;13.97;2.80;;;14.90;86.10;;;;;;7387630;19;20376;-46
2022/09/17 09:52:04;;;;;;;5.57;2.40;;;14.90;84.60;;;;;;7385053;19;20365;-46
2022/09/17 09:54:45;;;;;;;9.83;1.83;;;14.80;85.10;;;;;;7386870;19;20735;-46
2022/09/17 09:57:20;;;;;;;5.87;2.30;;;14.90;85.10;;;;;;7387119;19;20920;-49
2022/09/17 09:59:52;;;;;;;4.63;2.33;;;14.80;85.60;;;;;;7385373;19;20379;-46
2022/09/17 10:02:21;;;;;;;5.30;2.03;;;14.80;85.40;;;;;;7378982;19;20420;-46
2022/09/17 10:04:51;;;;;;;9.40;2.27;;;14.90;82.10;;;;;;7387621;19;20372;-46
2022/09/17 10:07:20;;;;;;;6.67;2.07;;;14.80;83.00;;;;;;7388380;19;20391;-46
2022/09/17 10:09:50;;;;;;;5.20;2.67;;;14.80;83.50;;;;;;7383221;19;20436;-46
2022/09/17 10:12:22;;;;;;;6.80;3.23;;;14.80;84.20;;;;;;7383131;19;20384;-45
2022/09/17 10:14:52;;;;;;;3.43;1.97;;;15.10;81.50;;;;;;7387609;19;20376;-46
2022/09/17 10:17:24;;;;;;;4.47;2.17;;;15.60;79.30;;;;;;7388368;19;20745;-46
2022/09/17 10:20:16;;;;;;;3.80;1.70;;;16.00;76.80;;;;;;7385502;19;20741;-47
2022/09/17 10:22:46;;;;;;;3.03;2.13;;;16.30;74.30;;;;;;7385314;19;20379;-46
2022/09/17 10:25:32;;;;;;;2.90;1.33;;;17.20;74.50;;;;;;7386155;19;20807;-45
2022/09/17 10:28:07;;;;;;;4.50;1.60;;;18.60;64.30;;;;;;7382962;19;20384;-47
2022/09/17 10:30:37;;;;;;;2.83;1.27;;;20.40;57.00;;;;;;7386971;19;20371;-47
2022/09/17 10:33:23;;;;;;;1.93;1.30;;;21.20;53.40;;;;;;7385104;19;20916;-46
2022/09/17 10:36:03;;;;;;;6.03;2.03;;;20.90;52.20;;;;;;7384803;19;20955;-46
2022/09/17 10:38:36;;;;;;;2.50;1.30;;;20.60;53.30;;;;;;7385954;19;20733;-46
2022/09/17 10:41:20;;;;;;;3.10;1.67;;;20.40;53.30;;;;;;7380346;19;20375;-46
2022/09/17 10:43:53;;;;;;;2.70;1.30;;;21.30;53.10;;;;;;7382421;19;20480;-46
2022/09/17 10:46:28;;;;;;;4.90;1.47;;;21.40;50.70;;;;;;7384039;19;20418;-46
2022/09/17 10:49:08;;;;;;;4.57;1.07;;;21.70;51.10;;;;;;7384299;19;20809;-47
2022/09/17 10:51:39;;;;;;;4.57;1.40;;;23.10;49.40;;;;;;7365778;19;20476;-47
2022/09/17 10:54:46;;;;;;;3.30;1.30;;;23.90;46.40;;;;;;7358779;19;20372;-47
2022/09/17 10:57:22;;;;;;;2.70;1.67;;;23.10;46.80;;;;;;7356877;19;20432;-47
2022/09/17 11:00:06;;;;;;;6.13;1.70;;;21.70;48.10;;;;;;7367132;19;21165;-47
2022/09/17 11:03:26;;;;;;;3.53;1.30;;;21.60;50.30;;;;;;7360516;19;20451;-47
2022/09/17 11:06:25;;;;;;;6.57;3.57;;;23.30;47.20;;;;;;7355167;19;20502;-47
2022/09/17 11:09:04;;;;;;;5.17;1.80;;;23.30;45.20;;;;;;7376498;19;20423;-47
2022/09/17 11:11:44;;;;;;;2.57;1.00;;;23.70;45.10;;;;;;7346001;19;20894;-48
2022/09/17 11:14:34;;;;;;;2.20;1.00;;;24.80;44.20;;;;;;7344084;19;21112;-47
2022/09/17 11:17:14;;;;;;;4.93;1.00;;;25.70;42.60;;;;;;7349835;19;20368;-48
2022/09/17 11:19:55;;;;;;;1.93;1.20;;;26.00;41.90;;;;;;7357907;19;24857;-47
2022/09/17 11:22:32;;;;;;;6.10;2.70;;;26.60;41.00;;;;;;7378442;19;20443;-48
2022/09/17 11:25:23;;;;;;;3.30;1.53;;;26.50;41.00;;;;;;7380204;19;20376;-48
2022/09/17 11:28:07;;;;;;;3.80;1.40;;;25.50;41.10;;;;;;7385520;19;20365;-48
2022/09/17 11:30:51;;;;;;;3.20;1.30;;;24.20;42.60;;;;;;7382843;19;20375;-47
2022/09/17 11:33:50;;;;;;;4.93;1.70;;;22.90;44.30;;;;;;7384140;19;20571;-47
2022/09/17 11:36:24;;;;;;;4.00;1.30;;;22.60;44.70;;;;;;7381953;19;20368;-48
2022/09/17 11:38:58;;;;;;;3.23;1.40;;;22.30;45.20;;;;;;7380845;19;20372;-47
2022/09/17 11:41:33;;;;;;;5.13;1.30;;;22.50;44.90;;;;;;7382246;19;20379;-47
2022/09/17 11:44:09;;;;;;;3.90;1.30;;;22.70;44.20;;;;;;7384059;19;20384;-49
2022/09/17 11:46:46;;;;;;;3.13;1.30;;;23.10;43.40;;;;;;7381253;19;20490;-47
2022/09/17 11:49:25;;;;;;;3.10;1.43;;;23.20;44.00;;;;;;7383842;19;20721;-48
2022/09/17 11:52:01;;;;;;;2.40;1.00;;;23.00;43.40;;;;;;7381464;19;21164;-48
2022/09/17 11:54:34;;;;;;;4.43;1.00;;;22.80;43.50;;;;;;7382058;19;20368;-47
2022/09/17 11:57:10;;;;;;;2.90;0.97;;;23.50;42.50;;;;;;7384669;19;20388;-48
2022/09/17 11:59:45;;;;;;;2.50;1.33;;;23.30;42.00;;;;;;7383224;19;20380;-47
2022/09/17 12:02:23;;;;;;;3.00;1.30;;;22.90;42.70;;;;;;7382713;19;20423;-47
2022/09/17 12:05:02;;;;;;;1.60;1.10;;;22.20;43.90;;;;;;7381057;19;20815;-47
2022/09/17 12:07:41;;;;;;;3.60;1.17;;;21.60;45.20;;;;;;7380273;19;20839;-47
2022/09/17 12:10:35;;;;;;;3.23;1.10;;;21.30;45.50;;;;;;7381015;19;20395;-47
2022/09/17 12:13:14;;;;;;;3.03;0.90;;;21.10;45.70;;;;;;7377250;19;20460;-46
2022/09/17 12:15:48;;;;;;;2.70;1.07;;;20.60;46.40;;;;;;7382030;19;20380;-46
2022/09/17 12:18:28;;;;;;;2.57;1.33;;;20.00;48.50;;;;;;7381045;19;20641;-46
2022/09/17 12:21:04;;;;;;;2.20;1.53;;;19.70;52.20;;;;;;7383475;19;20380;-46
2022/09/17 12:23:40;;;;;;;2.17;1.33;;;19.10;53.30;;;;;;7381194;19;20371;-47
2022/09/17 12:26:20;;;;;;;1.70;1.10;;;18.80;56.10;;;;;;7382632;19;20914;-46
2022/09/17 12:28:58;;;;;;;5.00;1.37;;;18.60;57.50;;;;;;7378508;19;21041;-45
2022/09/17 12:31:37;;;;;;;4.97;1.50;;;18.10;58.10;;;;;;7382861;19;20371;-46
2022/09/17 12:34:22;;;;;;;8.83;1.97;;;17.60;59.80;;;;;;7380385;19;20402;-45
2022/09/17 12:37:02;;;;;;;2.67;1.30;;;17.40;59.60;;;;;;7380821;19;20677;-45
2022/09/17 12:40:02;;;;;;;3.80;1.60;;;17.30;59.80;;;;;;7380749;19;20441;-46
2022/09/17 12:42:49;;;;;;;2.00;1.20;;;17.80;58.70;;;;;;7379026;19;20816;-46
2022/09/17 12:45:31;;;;;;;1.93;1.80;;;18.70;56.40;;;;;;7383543;19;20921;-46
2022/09/17 12:48:25;;;;;;;2.13;1.20;;;19.00;54.80;;;;;;7382521;19;20747;-46
2022/09/17 12:51:09;;;;;;;2.13;1.10;;;18.60;55.10;;;;;;7383979;19;20954;-45
2022/09/17 12:53:49;;;;;;;1.20;0.80;;;18.00;57.70;;;;;;7381953;19;20368;-45
2022/09/17 12:56:36;;;;;;;3.07;1.03;;;17.40;59.10;;;;;;7380034;19;20720;-48
2022/09/17 12:59:14;;;;;;;3.53;1.57;;;17.10;61.90;;;;;;7379427;19;20918;-45
2022/09/17 13:01:52;;;;;;;3.13;1.43;;;17.00;60.90;;;;;;7379301;19;21015;-46
2022/09/17 13:04:51;;;;;;;1.93;0.83;;;17.00;62.00;;;;;;7382056;19;20386;-45
2022/09/17 13:07:50;;;;;;;2.73;0.90;;;16.80;61.10;;;;;;7378881;19;20403;-46
2022/09/17 13:10:48;;;;;;;2.30;1.20;;;16.60;64.00;;;;;;7381255;19;20360;-45
2022/09/17 13:13:31;;;;;;;1.80;0.87;;;16.10;66.80;;;;;;7378965;19;20376;-45
2022/09/17 13:16:11;;;;;;;1.20;0.70;;;15.70;72.80;;;;;;7380321;19;20380;-45
2022/09/17 13:18:48;;;;;;;2.07;1.00;;;15.30;76.90;;;;;;7358295;19;22092;-45
2022/09/17 13:21:22;;;;;;;3.27;0.87;;;15.10;77.20;;;;;;7383108;19;20725;-45
2022/09/17 13:23:54;;;;;;;6.27;1.03;;;15.10;79.20;;;;;;7381175;19;20750;-45
2022/09/17 13:26:38;;;;;;;1.37;0.80;;;15.30;78.50;;;;;;7378645;19;20378;-45